Time;durP1;ratioP1;P1;durP2;ratioP2;P2;SDS_P1;SDS_P2;PMS_P1;PMS_P2;Temp;Humidity;BMP_temperature;BMP_pressure;BME280_temperature;BME280_humidity;BME280_pressure;Samples;Min_cycle;Max_cycle;Signal;HPM_P1;HPM_P2
2022/09/12 00:01:22;;;;;;;7.97;6.93;;;14.90;99.70;;;17.88;54.49;97763.38;5049989;28;20302;-57
2022/09/12 00:03:57;;;;;;;7.72;6.82;;;14.90;99.90;;;17.84;54.36;97759.44;5067275;28;20047;-57
2022/09/12 00:06:29;;;;;;;8.48;7.43;;;14.80;99.90;;;17.82;54.75;97758.78;5049930;28;20066;-56
2022/09/12 00:09:01;;;;;;;10.35;6.88;;;14.80;99.90;;;17.81;54.48;97752.53;5050776;28;20057;-57
2022/09/12 00:11:29;;;;;;;9.32;6.75;;;14.80;99.90;;;17.75;54.52;97745.28;5067277;28;20048;-57
2022/09/12 00:13:59;;;;;;;9.27;7.18;;;14.80;99.90;;;17.71;54.68;97750.25;5067728;28;20389;-57
2022/09/12 00:16:30;;;;;;;10.52;7.30;;;14.70;99.90;;;17.68;54.71;97747.97;5049635;28;20044;-57
2022/09/12 00:18:59;;;;;;;9.40;7.65;;;14.70;99.90;;;17.65;54.67;97751.06;5067073;28;20051;-56
2022/09/12 00:21:27;;;;;;;8.75;6.43;;;14.60;99.90;;;17.63;54.76;97746.94;5065817;28;20053;-55
2022/09/12 00:23:55;;;;;;;7.68;6.53;;;14.60;99.90;;;17.61;54.62;97746.31;5048477;28;20040;-55
2022/09/12 00:26:23;;;;;;;11.25;8.57;;;14.60;99.90;;;17.56;54.71;97752.28;5067015;28;20044;-56
2022/09/12 00:28:51;;;;;;;9.23;6.95;;;14.50;99.90;;;17.55;54.76;97747.94;5048818;28;20055;-56
2022/09/12 00:31:24;;;;;;;11.90;8.00;;;14.50;99.90;;;17.54;54.71;97748.16;5049326;28;20059;-56
2022/09/12 00:33:55;;;;;;;10.15;7.80;;;14.50;99.90;;;17.50;54.92;97745.84;5048794;28;20060;-57
2022/09/12 00:36:25;;;;;;;11.13;7.65;;;14.50;99.90;;;17.49;55.15;97738.81;5048583;28;20052;-56
2022/09/12 00:38:53;;;;;;;8.25;6.80;;;14.50;99.90;;;17.50;55.22;97747.72;5051010;28;20048;-56
2022/09/12 00:41:31;;;;;;;11.00;8.43;;;14.50;99.90;;;17.51;55.21;97742.13;5067539;28;20048;-56
2022/09/12 00:44:09;;;;;;;10.57;8.07;;;14.50;99.90;;;17.49;54.92;97744.19;5050141;28;20055;-55
2022/09/12 00:47:06;;;;;;;9.00;7.45;;;14.50;99.90;;;17.47;55.12;97742.75;5066416;28;20235;-57
2022/09/12 00:49:59;;;;;;;9.32;7.40;;;14.50;99.90;;;17.46;54.79;97738.41;5032069;28;20068;-55
2022/09/12 00:52:42;;;;;;;9.97;7.70;;;14.50;99.90;;;17.49;54.87;97740.69;5049840;28;20478;-57
2022/09/12 00:55:23;;;;;;;10.93;7.82;;;14.50;99.90;;;17.44;54.87;97733.22;5049051;28;20287;-56
2022/09/12 00:57:59;;;;;;;12.98;7.80;;;14.40;99.90;;;17.40;54.98;97731.13;5067193;28;20052;-56
2022/09/12 01:00:27;;;;;;;10.35;7.70;;;14.40;99.90;;;17.39;55.00;97729.47;5065703;28;20342;-56
2022/09/12 01:03:06;;;;;;;9.68;7.78;;;14.40;99.90;;;17.37;55.11;97724.31;5066470;28;20059;-56
2022/09/12 01:05:39;;;;;;;9.60;8.23;;;14.40;99.90;;;17.37;55.10;97720.75;5065449;28;20044;-55
2022/09/12 01:08:06;;;;;;;12.65;8.43;;;14.40;99.90;;;17.34;55.66;97722.00;5049032;28;20048;-56
2022/09/12 01:10:36;;;;;;;11.27;8.90;;;14.40;99.90;;;17.35;55.96;97725.53;5065315;28;20040;-55
2022/09/12 01:13:07;;;;;;;10.70;8.98;;;14.50;99.90;;;17.38;56.01;97717.06;5049429;28;20048;-56
2022/09/12 01:15:38;;;;;;;11.98;9.02;;;14.50;99.90;;;17.45;56.07;97718.72;5048814;28;20320;-57
2022/09/12 01:18:31;;;;;;;11.15;8.80;;;14.60;99.90;;;17.53;55.95;97717.72;5048358;28;20051;-56
2022/09/12 01:21:54;;;;;;;11.57;8.90;;;14.70;99.90;;;17.59;55.74;97710.69;5065773;28;20044;-56
2022/09/12 01:24:50;;;;;;;12.45;7.97;;;14.80;99.90;;;17.60;55.65;97702.41;5065759;28;20059;-54
2022/09/12 01:27:56;;;;;;;9.52;7.72;;;14.80;99.90;;;17.61;55.70;97700.53;5067609;28;20060;-56
2022/09/12 01:30:55;;;;;;;10.35;8.40;;;14.80;99.90;;;17.62;55.69;97696.81;5026513;28;20052;-56
2022/09/12 01:33:54;;;;;;;10.10;7.97;;;14.80;99.90;;;17.63;55.53;97696.59;5067268;28;20246;-55
2022/09/12 01:36:28;;;;;;;12.10;8.20;;;14.80;99.90;;;17.66;55.95;97698.91;5032215;28;20075;-56
2022/09/12 01:39:23;;;;;;;9.52;7.78;;;14.90;99.90;;;17.67;55.55;97694.34;5065537;28;20060;-55
2022/09/12 01:42:02;;;;;;;11.15;8.57;;;14.90;99.90;;;17.64;55.35;97697.44;5050424;28;20056;-56
2022/09/12 01:45:02;;;;;;;14.05;9.27;;;14.70;99.90;;;17.61;55.36;97700.53;5054012;28;20051;-56
2022/09/12 01:47:45;;;;;;;10.40;8.55;;;14.70;99.90;;;17.59;55.28;97702.63;5069329;28;20052;-56
2022/09/12 01:50:26;;;;;;;8.98;7.88;;;14.60;99.90;;;17.53;54.93;97696.19;5057206;28;20063;-56
2022/09/12 01:53:03;;;;;;;11.23;8.23;;;14.50;99.90;;;17.50;55.30;97688.50;5072913;28;20051;-55
2022/09/12 01:55:45;;;;;;;12.20;8.90;;;14.50;99.90;;;17.46;55.44;97695.34;5089400;28;20044;-56
2022/09/12 01:58:21;;;;;;;11.77;9.02;;;14.50;99.90;;;17.39;55.40;97689.09;5090039;28;20048;-57
2022/09/12 02:01:10;;;;;;;11.68;8.13;;;14.40;99.90;;;17.35;55.67;97679.78;5072955;28;20052;-55
2022/09/12 02:03:51;;;;;;;12.65;9.13;;;14.40;99.90;;;17.32;55.55;97681.84;5073085;28;20266;-56
2022/09/12 02:06:39;;;;;;;12.68;8.48;;;14.30;99.90;;;17.30;55.70;97683.09;5073546;28;20450;-56
2022/09/12 02:09:34;;;;;;;9.93;8.35;;;14.30;99.90;;;17.29;55.40;97678.72;5074980;28;20050;-56
2022/09/12 02:12:05;;;;;;;10.43;8.70;;;14.30;99.90;;;17.26;55.35;97684.53;5063683;28;20062;-53
2022/09/12 02:14:50;;;;;;;10.80;8.35;;;14.20;99.90;;;17.22;55.40;97678.72;5072645;28;20048;-56
2022/09/12 02:17:25;;;;;;;13.45;8.40;;;14.20;99.90;;;17.18;55.59;97674.78;5072898;28;20054;-55
2022/09/12 02:20:02;;;;;;;13.30;8.32;;;14.20;99.90;;;17.10;55.77;97674.97;5071126;28;20043;-53
2022/09/12 02:22:32;;;;;;;10.35;7.95;;;14.10;99.90;;;17.08;55.95;97674.34;5089988;28;20255;-56
2022/09/12 02:25:04;;;;;;;10.27;8.35;;;14.10;99.90;;;17.01;56.18;97668.94;5072908;28;20058;-55
2022/09/12 02:27:43;;;;;;;11.48;8.52;;;14.00;99.90;;;17.02;55.86;97667.91;5073036;28;20376;-56
2022/09/12 02:30:16;;;;;;;10.45;7.30;;;14.10;99.90;;;17.04;55.78;97675.75;5071719;28;20052;-53
2022/09/12 02:33:00;;;;;;;10.88;7.93;;;14.10;99.90;;;17.04;55.75;97667.69;5071196;28;20052;-56
2022/09/12 02:36:14;;;;;;;10.10;7.38;;;14.10;99.90;;;16.99;55.54;97667.47;5072554;28;20341;-57
2022/09/12 02:38:46;;;;;;;9.10;7.95;;;14.00;99.90;;;16.99;55.73;97667.47;5078202;28;20052;-55
2022/09/12 02:41:19;;;;;;;10.68;7.95;;;13.90;99.90;;;16.94;55.75;97668.06;5070639;28;20052;-56
2022/09/12 02:43:49;;;;;;;11.88;7.68;;;13.90;99.90;;;16.89;56.11;97666.00;5071901;28;20242;-55
2022/09/12 02:46:45;;;;;;;11.55;8.00;;;13.90;99.90;;;16.84;56.08;97665.75;5070897;28;20043;-54
2022/09/12 02:49:15;;;;;;;11.68;8.77;;;13.80;99.90;;;16.86;56.18;97665.56;5063535;28;20058;-55
2022/09/12 02:51:45;;;;;;;16.17;9.90;;;13.80;99.90;;;16.81;56.12;97659.91;5088633;28;20050;-53
2022/09/12 02:54:16;;;;;;;11.65;9.18;;;13.80;99.90;;;16.78;56.06;97657.66;5071506;28;20052;-56
2022/09/12 02:56:45;;;;;;;11.73;8.63;;;13.80;99.90;;;16.77;56.34;97659.50;5071465;28;20048;-55
2022/09/12 02:59:18;;;;;;;12.43;9.05;;;13.80;99.90;;;16.74;56.23;97660.72;5089867;28;20051;-55
2022/09/12 03:02:13;;;;;;;13.47;9.60;;;13.80;99.90;;;16.74;56.08;97649.16;5071734;28;20040;-57
2022/09/12 03:05:22;;;;;;;11.88;9.57;;;13.70;99.90;;;16.68;56.17;97656.16;5089859;28;20070;-56
2022/09/12 03:08:36;;;;;;;11.18;8.45;;;13.70;99.90;;;16.64;56.24;97654.91;5073496;28;20078;-54
2022/09/12 03:12:01;;;;;;;12.35;8.75;;;13.70;99.90;;;16.62;56.41;97659.63;5089168;28;20044;-55
2022/09/12 03:15:19;;;;;;;11.77;8.95;;;13.60;99.90;;;16.63;56.25;97658.59;4987980;28;20077;-56
2022/09/12 03:18:42;;;;;;;12.35;8.88;;;13.70;99.90;;;16.60;56.17;97661.69;4970785;28;20060;-55
2022/09/12 03:21:44;;;;;;;10.85;8.68;;;13.70;99.90;;;16.64;56.60;97662.13;5072013;28;20044;-56
2022/09/12 03:24:36;;;;;;;11.52;8.77;;;13.70;99.90;;;16.64;56.76;97659.44;5055731;28;20047;-55
2022/09/12 03:27:15;;;;;;;10.90;8.38;;;13.70;99.90;;;16.65;56.83;97663.78;5070774;28;20358;-53
2022/09/12 03:29:46;;;;;;;10.98;8.90;;;13.70;99.90;;;16.63;56.74;97665.84;5071993;28;20052;-54
2022/09/12 03:32:15;;;;;;;10.65;7.80;;;13.70;99.90;;;16.62;56.98;97656.13;5070862;28;20070;-55
2022/09/12 03:34:42;;;;;;;13.40;8.52;;;13.70;99.90;;;16.61;56.76;97657.16;5088079;28;20349;-55
2022/09/12 03:37:10;;;;;;;12.77;9.10;;;13.70;99.90;;;16.61;56.49;97655.28;5088963;28;20052;-53
2022/09/12 03:39:38;;;;;;;11.93;8.18;;;13.70;99.90;;;16.62;56.40;97664.19;5087204;28;20052;-55
2022/09/12 03:42:06;;;;;;;11.45;8.00;;;13.70;99.90;;;16.60;56.42;97660.88;5086710;28;20274;-55
2022/09/12 03:44:34;;;;;;;10.02;7.95;;;13.70;99.90;;;16.57;56.50;97663.94;5087235;28;20048;-54
2022/09/12 03:47:02;;;;;;;12.57;8.90;;;13.60;99.90;;;16.53;56.74;97667.03;5088794;28;20059;-56
2022/09/12 03:49:31;;;;;;;10.73;8.43;;;13.60;99.90;;;16.53;56.80;97666.19;5088725;28;20052;-55
2022/09/12 03:51:59;;;;;;;11.48;8.95;;;13.60;99.90;;;16.51;57.18;97658.34;5088288;28;20058;-53
2022/09/12 03:54:27;;;;;;;13.20;9.13;;;13.60;99.90;;;16.50;57.09;97666.63;5088173;28;20062;-56
2022/09/12 03:56:55;;;;;;;11.38;9.07;;;13.60;99.90;;;16.50;56.82;97662.06;5087219;28;20062;-55
2022/09/12 03:59:23;;;;;;;14.13;10.23;;;13.60;99.90;;;16.50;57.02;97667.44;5070977;28;20059;-52
2022/09/12 04:01:50;;;;;;;12.00;9.88;;;13.60;99.90;;;16.49;57.05;97670.31;5087588;28;20243;-56
2022/09/12 04:04:18;;;;;;;10.60;8.93;;;13.60;99.90;;;16.45;57.21;97664.50;5088004;28;20070;-54
2022/09/12 04:06:46;;;;;;;11.95;9.88;;;13.50;99.90;;;16.47;57.30;97664.31;5068760;28;20054;-54
2022/09/12 04:09:14;;;;;;;15.00;9.27;;;13.50;99.90;;;16.45;57.29;97659.13;5086910;28;20095;-55
2022/09/12 04:11:41;;;;;;;16.75;9.27;;;13.50;99.90;;;16.43;57.23;97655.81;5088143;28;20346;-54
2022/09/12 04:14:09;;;;;;;14.63;8.70;;;13.50;99.90;;;16.41;57.33;97655.19;5070539;28;20044;-56
2022/09/12 04:16:37;;;;;;;12.40;9.45;;;13.40;99.90;;;16.40;56.93;97658.91;5069130;28;20052;-55
2022/09/12 04:19:05;;;;;;;15.82;9.82;;;13.40;99.90;;;16.39;56.93;97659.09;5087337;28;20040;-54
2022/09/12 04:21:33;;;;;;;12.40;8.73;;;13.40;99.90;;;16.38;56.76;97658.28;5069299;28;20056;-54
2022/09/12 04:24:01;;;;;;;13.10;9.45;;;13.40;99.90;;;16.36;56.82;97654.94;5086708;28;20321;-55
2022/09/12 04:26:30;;;;;;;13.32;10.40;;;13.40;99.90;;;16.33;56.97;97661.53;5068911;28;20048;-56
2022/09/12 04:28:58;;;;;;;12.55;9.65;;;13.30;99.90;;;16.31;57.11;97660.09;5086586;28;20062;-56
2022/09/12 04:31:26;;;;;;;13.38;9.48;;;13.30;99.90;;;16.29;57.18;97662.97;5087031;28;20055;-55
2022/09/12 04:33:56;;;;;;;15.80;10.38;;;13.30;99.90;;;16.28;57.15;97658.59;5086932;28;20047;-54
2022/09/12 04:36:26;;;;;;;14.27;9.63;;;13.30;99.90;;;16.26;57.01;97662.53;5087136;28;20699;-56
2022/09/12 04:38:55;;;;;;;15.18;11.02;;;13.30;99.90;;;16.22;57.26;97658.59;5070011;28;20048;-56
2022/09/12 04:41:27;;;;;;;12.20;10.32;;;13.20;99.90;;;16.21;57.41;97659.63;5069008;28;20047;-55
2022/09/12 04:44:01;;;;;;;15.18;10.73;;;13.20;99.90;;;16.21;57.02;97656.94;5070454;28;20070;-53
2022/09/12 04:46:32;;;;;;;15.95;10.88;;;13.20;99.90;;;16.19;57.06;97658.97;5088238;28;20364;-55
2022/09/12 04:49:00;;;;;;;13.52;10.63;;;13.20;99.90;;;16.14;57.45;97652.31;5086929;28;20048;-56
2022/09/12 04:51:35;;;;;;;17.13;10.90;;;13.10;99.90;;;16.11;57.68;97657.25;5069217;28;20051;-53
2022/09/12 04:54:13;;;;;;;17.85;11.27;;;13.10;99.90;;;16.08;57.97;97652.28;5087937;28;20046;-56
2022/09/12 04:56:45;;;;;;;16.77;10.68;;;13.10;99.90;;;16.05;58.29;97650.00;5085976;28;20058;-55
2022/09/12 04:59:15;;;;;;;13.57;11.07;;;13.10;99.90;;;16.08;58.07;97644.25;5068955;28;20051;-55
2022/09/12 05:01:42;;;;;;;14.20;10.20;;;13.10;99.90;;;16.10;58.21;97642.19;5086451;28;20047;-56
2022/09/12 05:04:12;;;;;;;15.32;9.98;;;13.10;99.90;;;16.13;58.01;97639.94;5086481;28;20043;-55
2022/09/12 05:06:41;;;;;;;12.30;9.25;;;13.20;99.90;;;16.17;57.84;97639.53;5069393;28;20048;-56
2022/09/12 05:09:12;;;;;;;12.90;9.02;;;13.20;99.90;;;16.20;57.83;97647.22;5086872;28;20051;-55
2022/09/12 05:11:43;;;;;;;14.93;9.57;;;13.30;99.90;;;16.17;57.58;97637.69;5068167;28;20055;-54
2022/09/12 05:14:31;;;;;;;14.95;10.18;;;13.20;99.90;;;16.21;57.49;97640.81;5086051;28;20060;-54
2022/09/12 05:17:00;;;;;;;14.13;10.68;;;13.20;99.90;;;16.20;57.49;97637.28;5070070;28;20044;-55
2022/09/12 05:19:29;;;;;;;11.18;8.95;;;13.30;99.90;;;16.21;57.48;97648.88;5086326;28;20346;-56
2022/09/12 05:21:58;;;;;;;13.82;9.30;;;13.30;99.90;;;16.21;57.41;97651.56;5086304;28;20058;-56
2022/09/12 05:24:26;;;;;;;15.32;9.63;;;13.30;99.90;;;16.15;57.67;97650.50;5069747;28;20058;-56
2022/09/12 05:26:54;;;;;;;12.85;10.00;;;13.20;99.90;;;16.17;57.54;97652.97;5069791;28;20036;-54
2022/09/12 05:29:24;;;;;;;15.07;9.55;;;13.20;99.90;;;16.19;57.67;97653.59;5085847;28;20078;-57
2022/09/12 05:31:52;;;;;;;15.30;9.85;;;13.20;99.90;;;16.20;57.73;97657.94;5068897;28;20059;-56
2022/09/12 05:34:20;;;;;;;12.55;9.80;;;13.30;99.90;;;16.21;58.06;97657.75;5087103;28;20051;-55
2022/09/12 05:36:48;;;;;;;13.57;9.68;;;13.30;99.90;;;16.19;57.90;97656.28;5068931;28;20376;-52
2022/09/12 05:39:17;;;;;;;13.25;10.57;;;13.20;99.90;;;16.17;58.04;97652.97;5068636;28;20113;-55
2022/09/12 05:41:46;;;;;;;14.15;10.95;;;13.20;99.90;;;16.17;58.14;97656.50;5065688;28;20256;-56
2022/09/12 05:44:14;;;;;;;13.57;9.43;;;13.20;99.90;;;16.20;58.19;97653.41;5067670;28;20062;-55
2022/09/12 05:46:44;;;;;;;13.48;9.15;;;13.30;99.90;;;16.25;58.42;97666.25;5086111;28;20044;-56
2022/09/12 05:49:13;;;;;;;11.93;8.93;;;13.30;99.90;;;16.29;58.56;97659.47;5051411;28;20052;-55
2022/09/12 05:51:44;;;;;;;12.90;9.73;;;13.40;99.90;;;16.37;58.56;97659.28;5068038;28;20059;-56
2022/09/12 05:54:16;;;;;;;9.65;7.95;;;13.50;99.90;;;16.44;58.52;97664.69;5068733;28;20054;-56
2022/09/12 05:56:46;;;;;;;15.00;8.93;;;13.60;99.90;;;16.49;58.47;97660.38;5068918;28;20052;-56
2022/09/12 05:59:20;;;;;;;14.27;9.38;;;13.70;99.90;;;16.54;58.10;97665.19;5085260;28;20048;-55
2022/09/12 06:01:47;;;;;;;12.73;9.68;;;13.70;99.90;;;16.61;58.15;97660.66;5087660;28;20087;-56
2022/09/12 06:04:16;;;;;;;13.70;10.20;;;13.70;99.90;;;16.63;58.07;97661.28;5068359;28;20046;-55
2022/09/12 06:06:45;;;;;;;12.60;9.30;;;13.80;99.90;;;16.67;58.04;97661.72;5069028;28;20246;-54
2022/09/12 06:09:16;;;;;;;13.88;10.48;;;13.80;99.90;;;16.70;58.00;97656.78;5050631;28;20597;-56
2022/09/12 06:11:45;;;;;;;14.25;10.57;;;13.90;99.90;;;16.72;57.97;97653.91;5066986;28;20051;-58
2022/09/12 06:14:15;;;;;;;14.25;11.52;;;13.80;99.90;;;16.76;58.06;97652.47;5067372;28;20050;-57
2022/09/12 06:16:45;;;;;;;15.05;10.63;;;13.90;99.90;;;16.79;57.88;97656.59;5086153;28;20052;-56
2022/09/12 06:19:19;;;;;;;13.32;10.18;;;13.90;99.90;;;16.81;57.93;97657.22;5067893;28;20044;-58
2022/09/12 06:21:48;;;;;;;14.50;10.50;;;13.90;99.90;;;16.84;57.97;97660.38;5067646;28;20052;-55
2022/09/12 06:24:17;;;;;;;16.50;11.10;;;14.00;99.90;;;16.89;57.83;97657.09;5068003;28;20237;-57
2022/09/12 06:26:51;;;;;;;16.80;11.52;;;14.00;99.90;;;16.95;58.00;97653.59;5086087;28;20415;-58
2022/09/12 06:29:19;;;;;;;;;;;14.10;99.90;;;17.08;57.22;97658.22;5086007;28;20051;-54
2022/09/12 06:31:47;;;;;;;12.27;9.50;;;14.10;99.90;;;17.07;57.39;97660.03;5088492;28;19923;-57
2022/09/12 06:34:15;;;;;;;12.73;10.38;;;14.10;99.90;;;17.05;57.75;97661.28;5089353;28;20062;-56
2022/09/12 06:36:46;;;;;;;15.68;10.52;;;14.20;99.90;;;17.06;57.96;97655.72;5071402;28;20047;-55
2022/09/12 06:39:17;;;;;;;14.30;9.20;;;14.20;99.90;;;17.09;58.05;97659.84;5089050;28;20040;-57
2022/09/12 06:41:47;;;;;;;13.80;9.32;;;14.30;99.90;;;17.11;58.08;97661.28;5089231;28;20058;-58
2022/09/12 06:44:21;;;;;;;13.10;10.13;;;14.40;99.90;;;17.18;57.95;97658.66;5071562;28;20051;-57
2022/09/12 06:46:49;;;;;;;19.15;10.55;;;14.40;99.90;;;17.24;58.03;97660.50;5088608;28;20044;-57
2022/09/12 06:49:17;;;;;;;15.75;10.23;;;14.50;99.90;;;17.27;58.14;97660.13;5089517;28;20056;-55
2022/09/12 06:51:45;;;;;;;12.70;9.18;;;14.50;99.90;;;17.31;57.87;97668.59;5088605;28;20065;-57
2022/09/12 06:54:15;;;;;;;13.27;9.90;;;14.50;99.90;;;17.38;58.36;97655.16;5072221;28;20052;-57
2022/09/12 06:56:44;;;;;;;15.38;10.25;;;14.60;99.90;;;17.44;58.02;97668.63;5071552;28;20052;-57
2022/09/12 06:59:12;;;;;;;20.48;10.48;;;14.70;99.90;;;17.51;58.04;97663.25;5071797;28;20044;-56
2022/09/12 07:01:40;;;;;;;20.88;10.93;;;14.70;99.90;;;17.57;58.34;97662.44;5088089;28;20040;-56
2022/09/12 07:04:09;;;;;;;17.08;10.25;;;14.90;99.90;;;17.64;58.14;97651.66;5088712;28;20044;-56
2022/09/12 07:06:40;;;;;;;16.65;10.27;;;14.90;99.90;;;17.70;58.19;97656.25;5070368;28;20048;-57
2022/09/12 07:09:12;;;;;;;17.40;9.93;;;15.00;99.90;;;17.78;58.21;97656.03;5088775;28;20070;-60
2022/09/12 07:11:41;;;;;;;13.80;9.77;;;15.00;99.90;;;17.83;58.30;97655.41;5088359;28;20064;-64
2022/09/12 07:14:12;;;;;;;16.88;10.45;;;15.10;99.90;;;17.89;58.21;97657.28;5071434;28;20544;-64
2022/09/12 07:16:41;;;;;;;14.45;9.18;;;15.20;99.90;;;17.92;58.41;97661.47;5088398;28;20052;-64
2022/09/12 07:19:10;;;;;;;12.40;8.68;;;15.30;99.90;;;17.96;58.34;97666.22;5088180;28;20050;-64
2022/09/12 07:21:40;;;;;;;14.73;9.80;;;15.40;99.90;;;17.99;58.18;97662.25;5071751;28;20051;-64
2022/09/12 07:24:09;;;;;;;18.65;10.18;;;15.40;99.90;;;18.04;58.36;97667.88;5069648;28;20078;-64
2022/09/12 07:26:39;;;;;;;17.00;9.23;;;15.50;99.90;;;18.07;58.36;97670.97;5090404;28;20368;-64
2022/09/12 07:29:17;;;;;;;15.57;9.63;;;15.50;99.90;;;18.15;58.11;97664.53;5071415;28;20067;-64
2022/09/12 07:32:05;;;;;;;14.25;9.07;;;15.60;99.90;;;18.24;58.15;97667.84;5074403;28;20052;-64
2022/09/12 07:34:33;;;;;;;13.40;8.80;;;15.70;99.90;;;18.28;58.00;97669.06;5069621;28;20078;-64
2022/09/12 07:37:01;;;;;;;14.18;9.25;;;15.70;99.90;;;18.32;58.13;97662.25;5070888;28;20342;-64
2022/09/12 07:39:29;;;;;;;14.05;9.20;;;15.80;99.90;;;18.36;57.91;97660.78;5087786;28;20050;-64
2022/09/12 07:45:40;;;;;;;13.88;8.70;;;15.90;99.90;;;18.12;58.92;97664.94;5063154;28;20369;-60
2022/09/12 07:48:09;;;;;;;13.13;7.53;;;16.00;99.90;;;18.22;58.99;97665.38;5044382;28;20451;-60
2022/09/12 07:50:37;;;;;;;13.63;8.43;;;16.00;99.90;;;18.39;58.54;97662.22;5042784;28;20055;-60
2022/09/12 07:53:11;;;;;;;13.35;8.75;;;16.10;99.90;;;18.55;58.33;97663.63;5043836;28;20049;-58
2022/09/12 07:55:39;;;;;;;13.18;8.10;;;16.10;99.90;;;18.64;58.14;97662.38;5043497;28;20430;-57
2022/09/12 07:58:07;;;;;;;11.90;8.48;;;16.20;99.90;;;18.72;57.82;97664.00;5044621;28;20247;-59
2022/09/12 08:00:36;;;;;;;11.05;8.40;;;16.30;99.90;;;18.83;57.76;97663.38;5042272;28;20049;-59
2022/09/12 08:03:06;;;;;;;14.57;9.25;;;16.40;99.90;;;18.93;57.23;97652.94;5042979;28;20060;-53
2022/09/12 08:05:34;;;;;;;11.07;8.52;;;16.40;99.90;;;19.02;57.62;97662.47;5043418;28;20051;-56
2022/09/12 08:08:02;;;;;;;11.07;9.05;;;16.50;99.90;;;19.11;57.76;97659.50;5043864;28;20296;-54
2022/09/12 08:10:30;;;;;;;12.30;9.93;;;16.60;99.90;;;19.17;57.98;97662.16;5043285;28;20338;-54
2022/09/12 08:12:58;;;;;;;13.00;9.75;;;16.70;99.90;;;19.26;57.83;97666.25;5043313;28;20045;-50
2022/09/12 08:15:26;;;;;;;12.90;9.77;;;16.70;99.90;;;19.34;57.77;97664.38;5042712;28;20063;-54
2022/09/12 08:17:54;;;;;;;13.43;10.35;;;16.80;99.90;;;19.38;57.74;97655.59;5043814;28;20052;-51
2022/09/12 08:20:21;;;;;;;11.38;10.05;;;16.90;99.90;;;19.46;57.53;97658.06;5042246;28;20049;-53
2022/09/12 08:22:55;;;;;;;13.63;10.00;;;16.90;99.90;;;19.54;57.40;97656.97;5042174;28;20263;-53
2022/09/12 08:25:23;;;;;;;13.77;9.15;;;17.00;99.90;;;19.59;56.93;97664.41;5041758;28;20037;-51
2022/09/12 08:27:51;;;;;;;10.50;9.13;;;17.00;99.90;;;19.62;57.03;97669.38;5043519;28;20047;-55
2022/09/12 08:30:18;;;;;;;11.15;7.28;;;17.00;99.90;;;19.65;57.10;97666.22;5043240;28;20049;-54
2022/09/12 08:32:46;;;;;;;16.80;10.07;;;17.10;99.90;;;19.70;56.79;97669.13;5041044;28;20045;-51
2022/09/12 08:35:14;;;;;;;9.70;7.95;;;17.20;99.90;;;19.77;56.71;97666.38;5042834;28;20363;-54
2022/09/12 08:37:42;;;;;;;10.45;9.10;;;17.20;99.90;;;19.80;56.57;97661.38;5043469;28;20278;-55
2022/09/12 08:40:15;;;;;;;10.23;7.60;;;17.20;99.90;;;19.87;56.36;97666.69;5042828;28;20064;-55
2022/09/12 08:43:07;;;;;;;10.82;7.63;;;17.30;99.90;;;19.95;56.30;97660.19;5038469;28;20053;-53
2022/09/12 08:45:53;;;;;;;9.80;7.57;;;17.40;99.90;;;19.98;56.06;97666.00;5040835;28;20045;-54
2022/09/12 08:48:21;;;;;;;9.80;6.72;;;17.40;99.90;;;20.01;55.61;97657.47;5027026;28;20052;-51
2022/09/12 08:50:48;;;;;;;10.15;7.50;;;17.40;99.90;;;20.03;55.68;97655.34;5042857;28;20063;-53
2022/09/12 08:53:23;;;;;;;11.88;9.02;;;17.50;99.90;;;20.09;55.76;97656.34;5042073;28;20075;-54
2022/09/12 08:55:57;;;;;;;9.00;7.80;;;17.50;99.90;;;20.17;55.62;97657.94;5032412;28;20057;-52
2022/09/12 08:58:27;;;;;;;10.82;8.55;;;17.60;99.90;;;20.21;55.41;97648.34;5028822;28;20049;-54
2022/09/12 09:01:23;;;;;;;9.20;7.05;;;17.70;99.90;;;20.28;55.37;97651.81;5026673;28;20531;-53
2022/09/12 09:04:31;;;;;;;9.65;7.97;;;17.70;99.90;;;20.37;55.31;97652.34;5027509;28;20058;-54
2022/09/12 09:07:39;;;;;;;8.30;7.43;;;17.80;99.90;;;20.45;54.79;97655.59;5028314;28;20061;-55
2022/09/12 09:10:26;;;;;;;7.38;6.55;;;17.90;99.90;;;20.54;54.48;97655.28;5029156;28;20354;-52
2022/09/12 09:16:40;;;;;;;10.88;7.43;;;18.00;99.90;;;20.68;54.23;97650.56;5015373;28;20282;-54
2022/09/12 09:19:17;;;;;;;8.90;6.75;;;18.10;99.90;;;20.74;54.14;97652.38;5029149;28;20063;-54
2022/09/12 09:22:15;;;;;;;9.05;6.50;;;18.20;99.90;;;20.79;53.49;97653.34;5028893;28;20045;-52
2022/09/12 09:25:01;;;;;;;10.60;6.55;;;18.30;99.90;;;20.88;53.88;97651.19;5023436;28;20071;-52
2022/09/12 09:27:53;;;;;;;7.90;5.78;;;18.40;99.90;;;20.95;53.41;97653.78;5029077;28;20049;-55
2022/09/12 09:30:21;;;;;;;11.73;7.22;;;18.40;99.90;;;21.04;53.15;97655.13;5010729;28;20052;-50
2022/09/12 09:32:54;;;;;;;8.95;6.88;;;18.50;99.90;;;21.11;53.27;97652.31;5028805;28;20042;-54
2022/09/12 09:35:45;;;;;;;10.10;7.57;;;18.60;99.90;;;21.17;52.86;97648.69;5027500;28;20053;-55
2022/09/12 09:38:48;;;;;;;9.88;8.00;;;18.60;99.90;;;21.21;53.00;97650.75;5027802;28;20053;-54
2022/09/12 09:42:10;;;;;;;10.40;7.65;;;18.70;99.90;;;21.26;52.81;97649.22;5012748;28;20091;-52
2022/09/12 09:44:38;;;;;;;7.55;5.80;;;18.70;99.20;;;21.29;51.93;97643.38;5027391;28;20053;-51
2022/09/12 09:47:11;;;;;;;8.85;5.72;;;18.80;99.90;;;21.33;51.99;97649.97;5027603;28;20057;-55
2022/09/12 09:49:39;;;;;;;8.93;5.78;;;18.80;99.20;;;21.42;51.47;97646.69;5026335;28;20041;-52
2022/09/12 09:52:10;;;;;;;7.40;5.47;;;18.90;98.60;;;21.49;51.26;97649.31;5026853;28;20045;-52
2022/09/12 09:54:42;;;;;;;5.93;4.80;;;19.00;97.80;;;21.57;50.75;97642.75;5027392;28;20057;-52
2022/09/12 09:57:34;;;;;;;7.72;5.63;;;19.10;94.90;;;21.68;51.40;97643.84;5027059;28;20053;-52
2022/09/12 10:00:31;;;;;;;5.72;4.95;;;19.20;88.20;;;21.75;51.00;97647.25;5028686;28;20067;-55
2022/09/12 10:03:07;;;;;;;6.20;4.57;;;19.20;85.70;;;21.82;50.37;97637.16;5025974;28;20350;-53
2022/09/12 10:06:17;;;;;;;6.25;4.25;;;19.30;86.40;;;21.89;49.75;97637.03;5027969;28;20247;-56
2022/09/12 10:08:46;;;;;;;5.70;4.60;;;19.40;80.70;;;21.96;49.26;97648.59;5020985;28;20216;-54
2022/09/12 10:11:14;;;;;;;6.13;4.35;;;19.40;81.80;;;22.00;48.35;97647.91;5027157;28;20045;-56
2022/09/12 10:13:53;;;;;;;4.85;4.28;;;19.50;79.90;;;22.04;48.41;97645.53;5028095;28;20246;-54
2022/09/12 10:16:30;;;;;;;4.72;3.95;;;19.60;77.30;;;22.13;48.29;97637.88;5028655;28;20064;-52
2022/09/12 10:19:01;;;;;;;4.25;3.55;;;19.60;76.20;;;22.19;48.46;97634.22;5027926;28;20351;-54
2022/09/12 10:21:46;;;;;;;5.95;3.95;;;19.70;76.50;;;22.25;47.98;97627.88;5027663;28;20059;-51
2022/09/12 10:24:32;;;;;;;5.85;4.15;;;19.80;72.70;;;22.34;47.88;97628.38;5025997;28;20053;-56
2022/09/12 10:27:12;;;;;;;5.32;4.45;;;19.90;71.80;;;22.39;47.43;97628.47;5028661;28;20366;-50
2022/09/12 10:29:53;;;;;;;4.85;4.28;;;19.90;72.40;;;22.41;47.03;97631.75;5025803;28;20052;-54
2022/09/12 10:32:30;;;;;;;5.25;4.65;;;19.90;69.90;;;22.41;46.58;97624.47;5026779;28;20051;-52
2022/09/12 10:35:29;;;;;;;5.05;3.58;;;19.90;70.60;;;22.41;47.49;97624.47;5028230;28;20049;-54
2022/09/12 10:38:09;;;;;;;4.10;3.50;;;19.90;68.20;;;22.48;46.84;97620.78;5027414;28;20053;-54
2022/09/12 10:40:41;;;;;;;4.13;3.60;;;19.90;70.30;;;22.55;45.88;97619.59;5027878;28;20079;-53
2022/09/12 10:43:41;;;;;;;4.70;3.67;;;20.00;70.20;;;22.63;46.12;97614.88;5010027;28;20063;-56
2022/09/12 10:46:18;;;;;;;4.43;3.65;;;20.10;66.60;;;22.68;45.55;97620.38;5025848;28;20051;-52
2022/09/12 10:49:10;;;;;;;4.90;3.40;;;20.20;67.30;;;22.71;45.52;97619.94;5027076;28;20050;-54
2022/09/12 10:51:38;;;;;;;3.30;3.00;;;20.20;68.50;;;22.79;45.44;97619.53;5026947;28;20347;-52
2022/09/12 10:54:11;;;;;;;4.25;2.97;;;20.30;68.50;;;22.83;44.80;97606.31;5027063;28;20049;-53
2022/09/12 10:57:30;;;;;;;;;;;20.40;66.00;;;23.08;45.97;97612.28;5025551;28;20087;-51